sensor_id;sensor_type;location;lat;lon;timestamp;P1;durP1;ratioP1;P2;durP2;ratioP2
13580;SDS011;6861;46.170;7.222;2023-04-12T00:00:05;4.32;;;2.42;;
13580;SDS011;6861;46.170;7.222;2023-04-12T00:02:37;4.00;;;2.60;;
13580;SDS011;6861;46.170;7.222;2023-04-12T00:05:06;4.68;;;2.78;;
13580;SDS011;6861;46.170;7.222;2023-04-12T00:07:35;4.88;;;2.95;;
13580;SDS011;6861;46.170;7.222;2023-04-12T00:10:04;4.57;;;2.65;;
13580;SDS011;6861;46.170;7.222;2023-04-12T00:12:35;4.57;;;2.58;;
13580;SDS011;6861;46.170;7.222;2023-04-12T00:15:03;3.63;;;2.45;;
13580;SDS011;6861;46.170;7.222;2023-04-12T00:17:33;4.05;;;2.58;;
13580;SDS011;6861;46.170;7.222;2023-04-12T00:20:02;3.42;;;1.92;;
13580;SDS011;6861;46.170;7.222;2023-04-12T00:22:32;3.40;;;2.20;;
13580;SDS011;6861;46.170;7.222;2023-04-12T00:25:02;4.55;;;2.33;;
13580;SDS011;6861;46.170;7.222;2023-04-12T00:27:30;3.05;;;2.30;;
13580;SDS011;6861;46.170;7.222;2023-04-12T00:30:00;3.00;;;2.20;;
13580;SDS011;6861;46.170;7.222;2023-04-12T00:32:28;3.63;;;2.25;;
13580;SDS011;6861;46.170;7.222;2023-04-12T00:34:56;3.25;;;2.25;;
13580;SDS011;6861;46.170;7.222;2023-04-12T00:37:25;4.82;;;2.78;;
13580;SDS011;6861;46.170;7.222;2023-04-12T00:39:53;5.15;;;3.00;;
13580;SDS011;6861;46.170;7.222;2023-04-12T00:42:21;4.93;;;3.17;;
13580;SDS011;6861;46.170;7.222;2023-04-12T00:44:49;4.18;;;3.10;;
13580;SDS011;6861;46.170;7.222;2023-04-12T00:47:18;5.47;;;2.92;;
13580;SDS011;6861;46.170;7.222;2023-04-12T00:49:47;4.70;;;2.38;;
13580;SDS011;6861;46.170;7.222;2023-04-12T00:52:15;3.70;;;2.30;;
13580;SDS011;6861;46.170;7.222;2023-04-12T00:54:43;3.28;;;2.30;;
13580;SDS011;6861;46.170;7.222;2023-04-12T00:57:12;3.83;;;2.30;;
13580;SDS011;6861;46.170;7.222;2023-04-12T00:59:40;2.97;;;2.30;;
13580;SDS011;6861;46.170;7.222;2023-04-12T01:02:09;2.47;;;2.00;;
13580;SDS011;6861;46.170;7.222;2023-04-12T01:04:38;2.92;;;2.17;;
13580;SDS011;6861;46.170;7.222;2023-04-12T01:07:11;2.97;;;2.08;;
13580;SDS011;6861;46.170;7.222;2023-04-12T01:09:49;5.25;;;2.10;;
13580;SDS011;6861;46.170;7.222;2023-04-12T01:12:25;2.65;;;2.15;;
13580;SDS011;6861;46.170;7.222;2023-04-12T01:15:03;4.10;;;1.98;;
13580;SDS011;6861;46.170;7.222;2023-04-12T01:17:38;3.20;;;2.22;;
13580;SDS011;6861;46.170;7.222;2023-04-12T01:20:14;3.20;;;2.90;;
13580;SDS011;6861;46.170;7.222;2023-04-12T01:22:58;3.75;;;2.92;;
13580;SDS011;6861;46.170;7.222;2023-04-12T01:25:52;3.30;;;2.97;;
13580;SDS011;6861;46.170;7.222;2023-04-12T01:28:36;4.80;;;3.00;;
13580;SDS011;6861;46.170;7.222;2023-04-12T01:31:07;4.68;;;3.20;;
13580;SDS011;6861;46.170;7.222;2023-04-12T01:33:38;3.40;;;3.10;;
13580;SDS011;6861;46.170;7.222;2023-04-12T01:36:10;3.97;;;3.30;;
13580;SDS011;6861;46.170;7.222;2023-04-12T01:38:41;4.22;;;3.22;;
13580;SDS011;6861;46.170;7.222;2023-04-12T01:41:11;5.57;;;3.05;;
13580;SDS011;6861;46.170;7.222;2023-04-12T01:43:41;3.70;;;3.28;;
13580;SDS011;6861;46.170;7.222;2023-04-12T01:46:09;3.53;;;2.95;;
13580;SDS011;6861;46.170;7.222;2023-04-12T01:48:39;4.68;;;3.00;;
13580;SDS011;6861;46.170;7.222;2023-04-12T01:51:13;5.22;;;3.25;;
13580;SDS011;6861;46.170;7.222;2023-04-12T01:53:47;4.10;;;3.13;;
13580;SDS011;6861;46.170;7.222;2023-04-12T01:56:19;4.20;;;3.47;;
13580;SDS011;6861;46.170;7.222;2023-04-12T01:58:50;4.57;;;3.42;;
13580;SDS011;6861;46.170;7.222;2023-04-12T02:01:22;3.58;;;3.13;;
13580;SDS011;6861;46.170;7.222;2023-04-12T02:03:52;4.45;;;3.75;;
13580;SDS011;6861;46.170;7.222;2023-04-12T02:06:21;4.47;;;4.07;;
13580;SDS011;6861;46.170;7.222;2023-04-12T02:08:51;6.10;;;4.00;;
13580;SDS011;6861;46.170;7.222;2023-04-12T02:11:24;4.72;;;4.22;;
13580;SDS011;6861;46.170;7.222;2023-04-12T02:13:53;5.07;;;3.78;;
13580;SDS011;6861;46.170;7.222;2023-04-12T02:16:22;6.80;;;3.67;;
13580;SDS011;6861;46.170;7.222;2023-04-12T02:18:50;4.90;;;3.60;;
13580;SDS011;6861;46.170;7.222;2023-04-12T02:21:18;4.28;;;3.85;;
13580;SDS011;6861;46.170;7.222;2023-04-12T02:23:47;4.22;;;3.53;;
13580;SDS011;6861;46.170;7.222;2023-04-12T02:26:15;3.75;;;3.38;;
13580;SDS011;6861;46.170;7.222;2023-04-12T02:28:43;6.30;;;3.83;;
13580;SDS011;6861;46.170;7.222;2023-04-12T02:31:14;4.25;;;3.58;;
13580;SDS011;6861;46.170;7.222;2023-04-12T02:33:42;5.85;;;4.13;;
13580;SDS011;6861;46.170;7.222;2023-04-12T02:36:11;4.85;;;3.95;;
13580;SDS011;6861;46.170;7.222;2023-04-12T02:38:39;5.50;;;3.90;;
13580;SDS011;6861;46.170;7.222;2023-04-12T02:41:07;4.10;;;3.70;;
13580;SDS011;6861;46.170;7.222;2023-04-12T02:43:35;4.82;;;3.35;;
13580;SDS011;6861;46.170;7.222;2023-04-12T02:46:03;3.80;;;3.40;;
13580;SDS011;6861;46.170;7.222;2023-04-12T02:48:33;3.47;;;3.17;;
13580;SDS011;6861;46.170;7.222;2023-04-12T02:51:01;4.65;;;3.78;;
13580;SDS011;6861;46.170;7.222;2023-04-12T02:53:30;6.40;;;4.80;;
13580;SDS011;6861;46.170;7.222;2023-04-12T02:55:58;6.80;;;5.13;;
13580;SDS011;6861;46.170;7.222;2023-04-12T02:58:27;6.00;;;5.05;;
13580;SDS011;6861;46.170;7.222;2023-04-12T03:00:55;6.63;;;5.05;;
13580;SDS011;6861;46.170;7.222;2023-04-12T03:03:25;8.43;;;5.43;;
13580;SDS011;6861;46.170;7.222;2023-04-12T03:05:59;8.15;;;5.90;;
13580;SDS011;6861;46.170;7.222;2023-04-12T03:08:27;7.80;;;6.40;;
13580;SDS011;6861;46.170;7.222;2023-04-12T03:10:55;9.13;;;6.57;;
13580;SDS011;6861;46.170;7.222;2023-04-12T03:13:24;9.27;;;5.93;;
13580;SDS011;6861;46.170;7.222;2023-04-12T03:15:53;9.40;;;6.47;;
13580;SDS011;6861;46.170;7.222;2023-04-12T03:18:22;8.25;;;5.97;;
13580;SDS011;6861;46.170;7.222;2023-04-12T03:20:50;6.80;;;5.65;;
13580;SDS011;6861;46.170;7.222;2023-04-12T03:23:20;7.43;;;5.57;;
13580;SDS011;6861;46.170;7.222;2023-04-12T03:25:48;7.30;;;5.10;;
13580;SDS011;6861;46.170;7.222;2023-04-12T03:28:16;7.43;;;5.85;;
13580;SDS011;6861;46.170;7.222;2023-04-12T03:30:44;8.43;;;5.72;;
13580;SDS011;6861;46.170;7.222;2023-04-12T03:33:13;7.00;;;5.53;;
13580;SDS011;6861;46.170;7.222;2023-04-12T03:35:41;8.57;;;6.03;;
13580;SDS011;6861;46.170;7.222;2023-04-12T03:38:10;8.02;;;6.25;;
13580;SDS011;6861;46.170;7.222;2023-04-12T03:40:40;7.70;;;5.53;;
13580;SDS011;6861;46.170;7.222;2023-04-12T03:43:08;7.15;;;5.00;;
13580;SDS011;6861;46.170;7.222;2023-04-12T03:45:36;5.43;;;4.45;;
13580;SDS011;6861;46.170;7.222;2023-04-12T03:48:04;5.93;;;4.60;;
13580;SDS011;6861;46.170;7.222;2023-04-12T03:50:32;5.97;;;4.13;;
13580;SDS011;6861;46.170;7.222;2023-04-12T03:53:10;9.18;;;5.20;;
13580;SDS011;6861;46.170;7.222;2023-04-12T03:55:39;7.25;;;4.95;;
13580;SDS011;6861;46.170;7.222;2023-04-12T03:58:08;9.00;;;5.28;;
13580;SDS011;6861;46.170;7.222;2023-04-12T04:00:38;8.35;;;5.75;;
13580;SDS011;6861;46.170;7.222;2023-04-12T04:03:07;8.13;;;5.60;;
13580;SDS011;6861;46.170;7.222;2023-04-12T04:05:36;5.00;;;3.65;;
13580;SDS011;6861;46.170;7.222;2023-04-12T04:08:04;5.80;;;4.20;;
13580;SDS011;6861;46.170;7.222;2023-04-12T04:10:33;5.40;;;4.50;;
13580;SDS011;6861;46.170;7.222;2023-04-12T04:13:03;4.72;;;4.13;;
13580;SDS011;6861;46.170;7.222;2023-04-12T04:15:31;5.32;;;3.75;;
13580;SDS011;6861;46.170;7.222;2023-04-12T04:17:59;5.50;;;3.78;;
13580;SDS011;6861;46.170;7.222;2023-04-12T04:20:27;5.75;;;4.60;;
13580;SDS011;6861;46.170;7.222;2023-04-12T04:22:57;7.18;;;4.90;;
13580;SDS011;6861;46.170;7.222;2023-04-12T04:25:25;8.10;;;5.20;;
13580;SDS011;6861;46.170;7.222;2023-04-12T04:27:55;6.75;;;5.63;;
13580;SDS011;6861;46.170;7.222;2023-04-12T04:30:26;7.47;;;5.35;;
13580;SDS011;6861;46.170;7.222;2023-04-12T04:32:54;7.38;;;5.38;;
13580;SDS011;6861;46.170;7.222;2023-04-12T04:35:23;6.65;;;5.30;;
13580;SDS011;6861;46.170;7.222;2023-04-12T04:37:52;7.22;;;5.63;;
13580;SDS011;6861;46.170;7.222;2023-04-12T04:40:21;6.32;;;4.88;;
13580;SDS011;6861;46.170;7.222;2023-04-12T04:42:50;7.32;;;5.20;;
13580;SDS011;6861;46.170;7.222;2023-04-12T04:45:21;7.85;;;5.32;;
13580;SDS011;6861;46.170;7.222;2023-04-12T04:47:53;6.03;;;4.70;;
13580;SDS011;6861;46.170;7.222;2023-04-12T04:50:22;5.20;;;4.25;;
13580;SDS011;6861;46.170;7.222;2023-04-12T04:52:51;6.90;;;4.82;;
13580;SDS011;6861;46.170;7.222;2023-04-12T04:55:20;7.97;;;5.65;;
13580;SDS011;6861;46.170;7.222;2023-04-12T04:57:50;7.13;;;5.55;;
13580;SDS011;6861;46.170;7.222;2023-04-12T05:00:18;9.15;;;5.97;;
13580;SDS011;6861;46.170;7.222;2023-04-12T05:02:47;6.18;;;4.90;;
13580;SDS011;6861;46.170;7.222;2023-04-12T05:05:16;7.88;;;5.93;;
13580;SDS011;6861;46.170;7.222;2023-04-12T05:07:48;6.50;;;5.47;;
13580;SDS011;6861;46.170;7.222;2023-04-12T05:10:16;7.18;;;5.57;;
13580;SDS011;6861;46.170;7.222;2023-04-12T05:12:44;5.00;;;4.50;;
13580;SDS011;6861;46.170;7.222;2023-04-12T05:15:12;7.63;;;5.07;;
13580;SDS011;6861;46.170;7.222;2023-04-12T05:17:40;5.97;;;4.90;;
13580;SDS011;6861;46.170;7.222;2023-04-12T05:20:09;6.22;;;5.10;;
13580;SDS011;6861;46.170;7.222;2023-04-12T05:22:39;6.47;;;5.18;;
13580;SDS011;6861;46.170;7.222;2023-04-12T05:25:07;6.35;;;5.38;;
13580;SDS011;6861;46.170;7.222;2023-04-12T05:27:36;6.63;;;5.88;;
13580;SDS011;6861;46.170;7.222;2023-04-12T05:30:04;6.07;;;5.47;;
13580;SDS011;6861;46.170;7.222;2023-04-12T05:32:34;6.07;;;4.90;;
13580;SDS011;6861;46.170;7.222;2023-04-12T05:35:02;8.23;;;4.70;;
13580;SDS011;6861;46.170;7.222;2023-04-12T05:37:32;9.55;;;4.75;;
13580;SDS011;6861;46.170;7.222;2023-04-12T05:40:02;5.60;;;4.35;;
13580;SDS011;6861;46.170;7.222;2023-04-12T05:42:31;5.47;;;4.35;;
13580;SDS011;6861;46.170;7.222;2023-04-12T05:45:00;5.60;;;3.92;;
13580;SDS011;6861;46.170;7.222;2023-04-12T05:47:28;4.00;;;3.33;;
13580;SDS011;6861;46.170;7.222;2023-04-12T05:49:57;5.03;;;3.75;;
13580;SDS011;6861;46.170;7.222;2023-04-12T05:52:25;6.65;;;4.60;;
13580;SDS011;6861;46.170;7.222;2023-04-12T05:54:53;6.00;;;4.82;;
13580;SDS011;6861;46.170;7.222;2023-04-12T05:57:23;5.60;;;3.92;;
13580;SDS011;6861;46.170;7.222;2023-04-12T05:59:51;8.10;;;3.67;;
13580;SDS011;6861;46.170;7.222;2023-04-12T06:02:20;4.45;;;3.60;;
13580;SDS011;6861;46.170;7.222;2023-04-12T06:04:51;5.78;;;3.50;;
13580;SDS011;6861;46.170;7.222;2023-04-12T06:07:21;3.70;;;3.17;;
13580;SDS011;6861;46.170;7.222;2023-04-12T06:09:49;3.88;;;3.03;;
13580;SDS011;6861;46.170;7.222;2023-04-12T06:12:17;3.67;;;3.30;;
13580;SDS011;6861;46.170;7.222;2023-04-12T06:14:46;3.83;;;3.50;;
13580;SDS011;6861;46.170;7.222;2023-04-12T06:17:15;4.70;;;3.90;;
13580;SDS011;6861;46.170;7.222;2023-04-12T06:19:43;4.97;;;3.83;;
13580;SDS011;6861;46.170;7.222;2023-04-12T06:22:11;11.23;;;4.47;;
13580;SDS011;6861;46.170;7.222;2023-04-12T06:24:39;10.68;;;4.03;;
13580;SDS011;6861;46.170;7.222;2023-04-12T06:27:07;4.82;;;3.97;;
13580;SDS011;6861;46.170;7.222;2023-04-12T06:29:36;7.68;;;3.92;;
13580;SDS011;6861;46.170;7.222;2023-04-12T06:32:06;5.20;;;3.83;;
13580;SDS011;6861;46.170;7.222;2023-04-12T06:34:34;3.75;;;3.03;;
13580;SDS011;6861;46.170;7.222;2023-04-12T06:37:03;5.55;;;3.35;;
13580;SDS011;6861;46.170;7.222;2023-04-12T06:39:31;5.70;;;4.32;;
13580;SDS011;6861;46.170;7.222;2023-04-12T06:41:59;4.93;;;3.35;;
13580;SDS011;6861;46.170;7.222;2023-04-12T06:44:28;6.80;;;3.85;;
13580;SDS011;6861;46.170;7.222;2023-04-12T06:46:58;5.68;;;3.53;;
13580;SDS011;6861;46.170;7.222;2023-04-12T06:49:28;4.05;;;3.05;;
13580;SDS011;6861;46.170;7.222;2023-04-12T06:51:56;2.92;;;2.67;;
13580;SDS011;6861;46.170;7.222;2023-04-12T06:54:25;5.07;;;3.38;;
13580;SDS011;6861;46.170;7.222;2023-04-12T06:56:53;4.28;;;3.60;;
13580;SDS011;6861;46.170;7.222;2023-04-12T06:59:22;4.30;;;2.72;;
13580;SDS011;6861;46.170;7.222;2023-04-12T07:01:51;3.58;;;3.00;;
13580;SDS011;6861;46.170;7.222;2023-04-12T07:04:19;2.38;;;2.17;;
13580;SDS011;6861;46.170;7.222;2023-04-12T07:06:48;4.13;;;2.60;;
13580;SDS011;6861;46.170;7.222;2023-04-12T07:09:17;3.10;;;2.80;;
13580;SDS011;6861;46.170;7.222;2023-04-12T07:11:45;2.85;;;2.40;;
13580;SDS011;6861;46.170;7.222;2023-04-12T07:14:13;2.88;;;2.10;;
13580;SDS011;6861;46.170;7.222;2023-04-12T07:16:42;3.55;;;1.90;;
13580;SDS011;6861;46.170;7.222;2023-04-12T07:19:10;1.55;;;1.33;;
13580;SDS011;6861;46.170;7.222;2023-04-12T07:21:38;1.40;;;1.08;;
13580;SDS011;6861;46.170;7.222;2023-04-12T07:24:08;1.30;;;1.15;;
13580;SDS011;6861;46.170;7.222;2023-04-12T07:26:37;2.35;;;1.35;;
13580;SDS011;6861;46.170;7.222;2023-04-12T07:29:05;1.80;;;1.63;;
13580;SDS011;6861;46.170;7.222;2023-04-12T07:31:33;7.15;;;5.03;;
13580;SDS011;6861;46.170;7.222;2023-04-12T07:34:01;2.97;;;2.30;;
13580;SDS011;6861;46.170;7.222;2023-04-12T07:36:30;2.85;;;1.75;;
13580;SDS011;6861;46.170;7.222;2023-04-12T07:38:58;3.78;;;2.08;;
13580;SDS011;6861;46.170;7.222;2023-04-12T07:41:27;3.40;;;2.25;;
13580;SDS011;6861;46.170;7.222;2023-04-12T07:43:55;4.22;;;2.20;;
13580;SDS011;6861;46.170;7.222;2023-04-12T07:46:24;2.53;;;1.73;;
13580;SDS011;6861;46.170;7.222;2023-04-12T07:48:52;2.63;;;1.83;;
13580;SDS011;6861;46.170;7.222;2023-04-12T07:51:20;4.25;;;1.50;;
13580;SDS011;6861;46.170;7.222;2023-04-12T07:53:49;5.97;;;1.55;;
13580;SDS011;6861;46.170;7.222;2023-04-12T07:56:17;1.60;;;1.33;;
13580;SDS011;6861;46.170;7.222;2023-04-12T07:58:46;2.30;;;1.58;;
13580;SDS011;6861;46.170;7.222;2023-04-12T08:01:15;2.85;;;1.83;;
13580;SDS011;6861;46.170;7.222;2023-04-12T08:03:43;2.55;;;1.27;;
13580;SDS011;6861;46.170;7.222;2023-04-12T08:06:12;2.28;;;1.50;;
13580;SDS011;6861;46.170;7.222;2023-04-12T08:08:40;2.75;;;1.70;;
13580;SDS011;6861;46.170;7.222;2023-04-12T08:11:08;4.95;;;1.48;;
13580;SDS011;6861;46.170;7.222;2023-04-12T08:13:37;3.92;;;1.50;;
13580;SDS011;6861;46.170;7.222;2023-04-12T08:16:07;3.03;;;1.40;;
13580;SDS011;6861;46.170;7.222;2023-04-12T08:18:35;3.03;;;1.70;;
13580;SDS011;6861;46.170;7.222;2023-04-12T08:21:03;2.53;;;1.80;;
13580;SDS011;6861;46.170;7.222;2023-04-12T08:23:31;3.30;;;1.90;;
13580;SDS011;6861;46.170;7.222;2023-04-12T08:25:59;3.13;;;1.23;;
13580;SDS011;6861;46.170;7.222;2023-04-12T08:28:29;3.40;;;1.58;;
13580;SDS011;6861;46.170;7.222;2023-04-12T08:30:58;3.33;;;1.50;;
13580;SDS011;6861;46.170;7.222;2023-04-12T08:33:27;2.50;;;1.20;;
13580;SDS011;6861;46.170;7.222;2023-04-12T08:35:56;1.85;;;1.30;;
13580;SDS011;6861;46.170;7.222;2023-04-12T08:38:25;1.65;;;1.33;;
13580;SDS011;6861;46.170;7.222;2023-04-12T08:41:11;3.55;;;1.70;;
13580;SDS011;6861;46.170;7.222;2023-04-12T08:43:41;2.65;;;1.15;;
13580;SDS011;6861;46.170;7.222;2023-04-12T08:46:12;2.35;;;1.30;;
13580;SDS011;6861;46.170;7.222;2023-04-12T08:48:44;1.73;;;1.25;;
13580;SDS011;6861;46.170;7.222;2023-04-12T08:51:13;3.47;;;1.48;;
13580;SDS011;6861;46.170;7.222;2023-04-12T08:53:42;3.28;;;1.30;;
13580;SDS011;6861;46.170;7.222;2023-04-12T08:56:12;3.95;;;1.55;;
13580;SDS011;6861;46.170;7.222;2023-04-12T08:58:44;1.48;;;1.25;;
13580;SDS011;6861;46.170;7.222;2023-04-12T09:01:14;2.15;;;1.30;;
13580;SDS011;6861;46.170;7.222;2023-04-12T09:03:45;1.95;;;1.40;;
13580;SDS011;6861;46.170;7.222;2023-04-12T09:06:14;1.65;;;1.20;;
13580;SDS011;6861;46.170;7.222;2023-04-12T09:08:49;1.55;;;1.42;;
13580;SDS011;6861;46.170;7.222;2023-04-12T09:11:22;3.05;;;1.20;;
13580;SDS011;6861;46.170;7.222;2023-04-12T09:13:52;2.50;;;1.48;;
13580;SDS011;6861;46.170;7.222;2023-04-12T09:16:34;1.50;;;1.30;;
13580;SDS011;6861;46.170;7.222;2023-04-12T09:19:05;1.60;;;1.15;;
13580;SDS011;6861;46.170;7.222;2023-04-12T09:21:34;2.35;;;1.10;;
13580;SDS011;6861;46.170;7.222;2023-04-12T09:24:03;1.85;;;1.05;;
13580;SDS011;6861;46.170;7.222;2023-04-12T09:26:38;2.08;;;1.15;;
13580;SDS011;6861;46.170;7.222;2023-04-12T09:29:06;1.38;;;0.98;;
13580;SDS011;6861;46.170;7.222;2023-04-12T09:31:53;1.42;;;1.20;;
13580;SDS011;6861;46.170;7.222;2023-04-12T09:34:24;2.63;;;1.10;;
13580;SDS011;6861;46.170;7.222;2023-04-12T09:36:53;3.97;;;1.20;;
13580;SDS011;6861;46.170;7.222;2023-04-12T09:39:29;1.70;;;1.48;;
13580;SDS011;6861;46.170;7.222;2023-04-12T09:42:04;1.58;;;1.25;;
13580;SDS011;6861;46.170;7.222;2023-04-12T09:44:53;4.00;;;1.20;;
13580;SDS011;6861;46.170;7.222;2023-04-12T09:47:23;3.00;;;1.30;;
13580;SDS011;6861;46.170;7.222;2023-04-12T09:50:05;2.70;;;1.38;;
13580;SDS011;6861;46.170;7.222;2023-04-12T09:52:35;1.55;;;1.35;;
13580;SDS011;6861;46.170;7.222;2023-04-12T09:55:06;1.70;;;1.38;;
13580;SDS011;6861;46.170;7.222;2023-04-12T09:57:37;3.00;;;1.30;;
13580;SDS011;6861;46.170;7.222;2023-04-12T10:00:07;3.67;;;1.35;;
13580;SDS011;6861;46.170;7.222;2023-04-12T10:02:44;3.67;;;1.30;;
13580;SDS011;6861;46.170;7.222;2023-04-12T10:05:18;2.13;;;1.20;;
13580;SDS011;6861;46.170;7.222;2023-04-12T10:07:48;2.60;;;1.45;;
13580;SDS011;6861;46.170;7.222;2023-04-12T10:10:17;2.95;;;1.50;;
13580;SDS011;6861;46.170;7.222;2023-04-12T10:12:47;3.95;;;1.50;;
13580;SDS011;6861;46.170;7.222;2023-04-12T10:15:16;4.03;;;1.35;;
13580;SDS011;6861;46.170;7.222;2023-04-12T10:17:47;2.70;;;1.50;;
13580;SDS011;6861;46.170;7.222;2023-04-12T10:20:18;2.33;;;1.10;;
13580;SDS011;6861;46.170;7.222;2023-04-12T10:22:49;5.63;;;1.40;;
13580;SDS011;6861;46.170;7.222;2023-04-12T10:25:19;3.70;;;1.40;;
13580;SDS011;6861;46.170;7.222;2023-04-12T10:27:49;2.55;;;1.52;;
13580;SDS011;6861;46.170;7.222;2023-04-12T10:30:18;2.72;;;1.58;;
13580;SDS011;6861;46.170;7.222;2023-04-12T10:32:49;3.08;;;1.40;;
13580;SDS011;6861;46.170;7.222;2023-04-12T10:38:19;1.55;;;1.02;;
13580;SDS011;6861;46.170;7.222;2023-04-12T10:41:05;3.60;;;1.40;;
13580;SDS011;6861;46.170;7.222;2023-04-12T10:43:36;2.05;;;1.25;;
13580;SDS011;6861;46.170;7.222;2023-04-12T10:46:05;3.28;;;1.25;;
13580;SDS011;6861;46.170;7.222;2023-04-12T10:48:33;2.03;;;1.30;;
13580;SDS011;6861;46.170;7.222;2023-04-12T10:51:14;1.75;;;1.20;;
13580;SDS011;6861;46.170;7.222;2023-04-12T10:53:48;1.10;;;1.00;;
13580;SDS011;6861;46.170;7.222;2023-04-12T10:56:36;2.85;;;1.00;;
13580;SDS011;6861;46.170;7.222;2023-04-12T10:59:05;4.10;;;1.08;;
13580;SDS011;6861;46.170;7.222;2023-04-12T11:01:34;1.48;;;1.20;;
13580;SDS011;6861;46.170;7.222;2023-04-12T11:04:05;2.42;;;1.10;;
13580;SDS011;6861;46.170;7.222;2023-04-12T11:06:45;2.75;;;1.10;;
13580;SDS011;6861;46.170;7.222;2023-04-12T11:09:18;1.70;;;1.00;;
13580;SDS011;6861;46.170;7.222;2023-04-12T11:11:48;3.10;;;1.33;;
13580;SDS011;6861;46.170;7.222;2023-04-12T11:14:16;2.63;;;1.27;;
13580;SDS011;6861;46.170;7.222;2023-04-12T11:19:51;4.82;;;1.30;;
13580;SDS011;6861;46.170;7.222;2023-04-12T11:22:23;3.33;;;1.30;;
13580;SDS011;6861;46.170;7.222;2023-04-12T11:24:53;2.67;;;1.35;;
13580;SDS011;6861;46.170;7.222;2023-04-12T11:27:23;4.45;;;1.85;;
13580;SDS011;6861;46.170;7.222;2023-04-12T11:29:53;3.03;;;1.80;;
13580;SDS011;6861;46.170;7.222;2023-04-12T11:32:22;1.58;;;1.45;;
13580;SDS011;6861;46.170;7.222;2023-04-12T11:34:53;3.33;;;1.40;;
13580;SDS011;6861;46.170;7.222;2023-04-12T11:37:24;2.35;;;1.50;;
13580;SDS011;6861;46.170;7.222;2023-04-12T11:39:54;2.03;;;1.52;;
13580;SDS011;6861;46.170;7.222;2023-04-12T11:42:25;1.95;;;1.30;;
13580;SDS011;6861;46.170;7.222;2023-04-12T11:44:55;3.15;;;1.50;;
13580;SDS011;6861;46.170;7.222;2023-04-12T11:47:32;2.25;;;1.42;;
13580;SDS011;6861;46.170;7.222;2023-04-12T11:50:00;2.17;;;1.52;;
13580;SDS011;6861;46.170;7.222;2023-04-12T11:52:31;3.05;;;1.50;;
13580;SDS011;6861;46.170;7.222;2023-04-12T11:55:00;2.72;;;1.50;;
13580;SDS011;6861;46.170;7.222;2023-04-12T11:57:32;1.95;;;1.45;;
13580;SDS011;6861;46.170;7.222;2023-04-12T12:00:00;1.83;;;1.60;;
13580;SDS011;6861;46.170;7.222;2023-04-12T12:02:32;4.40;;;1.50;;
13580;SDS011;6861;46.170;7.222;2023-04-12T12:05:11;3.58;;;1.48;;
13580;SDS011;6861;46.170;7.222;2023-04-12T12:07:41;1.60;;;1.17;;
13580;SDS011;6861;46.170;7.222;2023-04-12T12:10:10;2.95;;;1.40;;
13580;SDS011;6861;46.170;7.222;2023-04-12T12:12:49;2.05;;;1.15;;
13580;SDS011;6861;46.170;7.222;2023-04-12T12:15:17;1.67;;;1.08;;
13580;SDS011;6861;46.170;7.222;2023-04-12T12:17:49;2.67;;;1.15;;
13580;SDS011;6861;46.170;7.222;2023-04-12T12:20:18;3.15;;;1.15;;
13580;SDS011;6861;46.170;7.222;2023-04-12T12:22:49;0.95;;;0.90;;
13580;SDS011;6861;46.170;7.222;2023-04-12T12:25:17;2.67;;;1.00;;
13580;SDS011;6861;46.170;7.222;2023-04-12T12:27:46;4.50;;;1.00;;
13580;SDS011;6861;46.170;7.222;2023-04-12T12:30:16;3.05;;;1.00;;
13580;SDS011;6861;46.170;7.222;2023-04-12T12:32:45;2.85;;;1.17;;
13580;SDS011;6861;46.170;7.222;2023-04-12T12:35:17;2.17;;;1.10;;
13580;SDS011;6861;46.170;7.222;2023-04-12T12:37:51;1.90;;;0.90;;
13580;SDS011;6861;46.170;7.222;2023-04-12T12:40:27;1.75;;;0.80;;
13580;SDS011;6861;46.170;7.222;2023-04-12T12:42:58;1.40;;;0.93;;
13580;SDS011;6861;46.170;7.222;2023-04-12T12:45:27;2.08;;;0.90;;
13580;SDS011;6861;46.170;7.222;2023-04-12T12:47:57;0.85;;;0.77;;
13580;SDS011;6861;46.170;7.222;2023-04-12T12:50:26;1.98;;;1.00;;
13580;SDS011;6861;46.170;7.222;2023-04-12T12:52:58;1.73;;;1.10;;
13580;SDS011;6861;46.170;7.222;2023-04-12T12:55:27;1.10;;;0.90;;
13580;SDS011;6861;46.170;7.222;2023-04-12T12:57:57;2.60;;;0.80;;
13580;SDS011;6861;46.170;7.222;2023-04-12T13:00:28;1.05;;;0.63;;
13580;SDS011;6861;46.170;7.222;2023-04-12T13:02:57;3.13;;;1.00;;
13580;SDS011;6861;46.170;7.222;2023-04-12T13:05:25;1.63;;;1.00;;
13580;SDS011;6861;46.170;7.222;2023-04-12T13:07:53;2.10;;;1.20;;
13580;SDS011;6861;46.170;7.222;2023-04-12T13:10:23;2.83;;;1.23;;
13580;SDS011;6861;46.170;7.222;2023-04-12T13:12:52;2.60;;;1.10;;
13580;SDS011;6861;46.170;7.222;2023-04-12T13:15:21;1.83;;;1.13;;
13580;SDS011;6861;46.170;7.222;2023-04-12T13:17:50;2.10;;;1.00;;
13580;SDS011;6861;46.170;7.222;2023-04-12T13:20:19;2.78;;;0.95;;
13580;SDS011;6861;46.170;7.222;2023-04-12T13:22:47;1.60;;;1.20;;
13580;SDS011;6861;46.170;7.222;2023-04-12T13:25:16;2.05;;;1.30;;
13580;SDS011;6861;46.170;7.222;2023-04-12T13:27:47;2.08;;;1.27;;
13580;SDS011;6861;46.170;7.222;2023-04-12T13:30:16;3.42;;;1.10;;
13580;SDS011;6861;46.170;7.222;2023-04-12T13:32:44;2.47;;;1.10;;
13580;SDS011;6861;46.170;7.222;2023-04-12T13:35:13;2.55;;;1.00;;
13580;SDS011;6861;46.170;7.222;2023-04-12T13:37:41;1.98;;;1.20;;
13580;SDS011;6861;46.170;7.222;2023-04-12T13:40:09;2.55;;;1.10;;
13580;SDS011;6861;46.170;7.222;2023-04-12T13:42:38;2.08;;;1.10;;
13580;SDS011;6861;46.170;7.222;2023-04-12T13:45:08;3.53;;;1.00;;
13580;SDS011;6861;46.170;7.222;2023-04-12T13:47:37;2.47;;;1.10;;
13580;SDS011;6861;46.170;7.222;2023-04-12T13:50:06;1.58;;;1.13;;
13580;SDS011;6861;46.170;7.222;2023-04-12T13:52:35;2.92;;;1.10;;
13580;SDS011;6861;46.170;7.222;2023-04-12T13:55:04;2.88;;;1.30;;
13580;SDS011;6861;46.170;7.222;2023-04-12T13:57:34;1.63;;;1.23;;
13580;SDS011;6861;46.170;7.222;2023-04-12T14:00:02;1.88;;;1.05;;
13580;SDS011;6861;46.170;7.222;2023-04-12T14:02:32;2.08;;;1.00;;
13580;SDS011;6861;46.170;7.222;2023-04-12T14:05:00;3.13;;;1.27;;
13580;SDS011;6861;46.170;7.222;2023-04-12T14:07:29;8.80;;;1.38;;
13580;SDS011;6861;46.170;7.222;2023-04-12T14:09:57;1.63;;;1.27;;
13580;SDS011;6861;46.170;7.222;2023-04-12T14:12:25;1.85;;;1.10;;
13580;SDS011;6861;46.170;7.222;2023-04-12T14:14:53;1.38;;;1.17;;
13580;SDS011;6861;46.170;7.222;2023-04-12T14:17:22;1.33;;;1.20;;
13580;SDS011;6861;46.170;7.222;2023-04-12T14:19:52;3.03;;;1.10;;
13580;SDS011;6861;46.170;7.222;2023-04-12T14:22:20;3.00;;;1.23;;
13580;SDS011;6861;46.170;7.222;2023-04-12T14:24:48;3.22;;;1.20;;
13580;SDS011;6861;46.170;7.222;2023-04-12T14:27:16;3.33;;;1.67;;
13580;SDS011;6861;46.170;7.222;2023-04-12T14:29:44;2.90;;;1.02;;
13580;SDS011;6861;46.170;7.222;2023-04-12T14:32:12;1.48;;;1.10;;
13580;SDS011;6861;46.170;7.222;2023-04-12T14:34:41;2.38;;;1.23;;
13580;SDS011;6861;46.170;7.222;2023-04-12T14:37:11;2.75;;;0.95;;
13580;SDS011;6861;46.170;7.222;2023-04-12T14:39:39;2.47;;;1.10;;
13580;SDS011;6861;46.170;7.222;2023-04-12T14:42:07;3.58;;;1.35;;
13580;SDS011;6861;46.170;7.222;2023-04-12T14:44:35;3.47;;;1.30;;
13580;SDS011;6861;46.170;7.222;2023-04-12T14:47:03;2.72;;;1.10;;
13580;SDS011;6861;46.170;7.222;2023-04-12T14:49:31;5.07;;;1.02;;
13580;SDS011;6861;46.170;7.222;2023-04-12T14:52:00;1.25;;;1.05;;
13580;SDS011;6861;46.170;7.222;2023-04-12T14:54:29;1.40;;;0.90;;
13580;SDS011;6861;46.170;7.222;2023-04-12T14:56:57;2.47;;;1.13;;
13580;SDS011;6861;46.170;7.222;2023-04-12T14:59:26;2.67;;;1.02;;
13580;SDS011;6861;46.170;7.222;2023-04-12T15:01:54;2.15;;;0.98;;
13580;SDS011;6861;46.170;7.222;2023-04-12T15:04:24;8.85;;;1.05;;
13580;SDS011;6861;46.170;7.222;2023-04-12T15:06:53;2.47;;;0.95;;
13580;SDS011;6861;46.170;7.222;2023-04-12T15:09:21;2.70;;;1.23;;
13580;SDS011;6861;46.170;7.222;2023-04-12T15:11:51;5.07;;;1.33;;
13580;SDS011;6861;46.170;7.222;2023-04-12T15:14:26;1.35;;;1.00;;
13580;SDS011;6861;46.170;7.222;2023-04-12T15:16:55;1.85;;;1.00;;
13580;SDS011;6861;46.170;7.222;2023-04-12T15:19:23;1.25;;;0.82;;
13580;SDS011;6861;46.170;7.222;2023-04-12T15:21:51;1.25;;;1.00;;